sensor_id;sensor_type;location;lat;lon;timestamp;P1;durP1;ratioP1;P2;durP2;ratioP2
15958;SDS011;8078;47.822;9.402;2024-01-16T00:01:07;7.77;;;4.13;;
15958;SDS011;8078;47.822;9.402;2024-01-16T00:03:33;5.57;;;3.93;;
15958;SDS011;8078;47.822;9.402;2024-01-16T00:06:00;5.13;;;4.03;;
15958;SDS011;8078;47.822;9.402;2024-01-16T00:08:25;6.80;;;4.13;;
15958;SDS011;8078;47.822;9.402;2024-01-16T00:10:51;5.70;;;3.87;;
15958;SDS011;8078;47.822;9.402;2024-01-16T00:13:16;4.87;;;3.90;;
15958;SDS011;8078;47.822;9.402;2024-01-16T00:15:42;8.93;;;4.07;;
15958;SDS011;8078;47.822;9.402;2024-01-16T00:18:08;7.23;;;4.13;;
15958;SDS011;8078;47.822;9.402;2024-01-16T00:20:34;6.20;;;4.00;;
15958;SDS011;8078;47.822;9.402;2024-01-16T00:23:00;7.57;;;4.07;;
15958;SDS011;8078;47.822;9.402;2024-01-16T00:25:26;6.50;;;4.10;;
15958;SDS011;8078;47.822;9.402;2024-01-16T00:27:51;6.90;;;4.13;;
15958;SDS011;8078;47.822;9.402;2024-01-16T00:30:17;6.43;;;3.90;;
15958;SDS011;8078;47.822;9.402;2024-01-16T00:32:43;7.57;;;4.73;;
15958;SDS011;8078;47.822;9.402;2024-01-16T00:35:09;4.83;;;4.03;;
15958;SDS011;8078;47.822;9.402;2024-01-16T00:37:37;6.60;;;3.97;;
15958;SDS011;8078;47.822;9.402;2024-01-16T00:40:03;6.03;;;4.43;;
15958;SDS011;8078;47.822;9.402;2024-01-16T00:42:30;7.47;;;4.37;;
15958;SDS011;8078;47.822;9.402;2024-01-16T00:44:56;4.03;;;3.57;;
15958;SDS011;8078;47.822;9.402;2024-01-16T00:47:23;6.10;;;4.03;;
15958;SDS011;8078;47.822;9.402;2024-01-16T00:49:49;4.97;;;3.77;;
15958;SDS011;8078;47.822;9.402;2024-01-16T00:52:14;7.40;;;4.03;;
15958;SDS011;8078;47.822;9.402;2024-01-16T00:54:40;7.70;;;4.17;;
15958;SDS011;8078;47.822;9.402;2024-01-16T00:57:06;6.50;;;4.07;;
15958;SDS011;8078;47.822;9.402;2024-01-16T00:59:32;5.43;;;4.07;;
15958;SDS011;8078;47.822;9.402;2024-01-16T01:01:58;5.83;;;4.20;;
15958;SDS011;8078;47.822;9.402;2024-01-16T01:04:23;5.53;;;4.07;;
15958;SDS011;8078;47.822;9.402;2024-01-16T01:06:49;7.30;;;4.17;;
15958;SDS011;8078;47.822;9.402;2024-01-16T01:09:16;6.87;;;4.33;;
15958;SDS011;8078;47.822;9.402;2024-01-16T01:11:42;5.73;;;4.20;;
15958;SDS011;8078;47.822;9.402;2024-01-16T01:14:07;8.23;;;4.67;;
15958;SDS011;8078;47.822;9.402;2024-01-16T01:16:33;6.00;;;4.00;;
15958;SDS011;8078;47.822;9.402;2024-01-16T01:18:59;7.20;;;4.00;;
15958;SDS011;8078;47.822;9.402;2024-01-16T01:21:25;5.43;;;3.90;;
15958;SDS011;8078;47.822;9.402;2024-01-16T01:23:51;7.30;;;4.17;;
15958;SDS011;8078;47.822;9.402;2024-01-16T01:26:16;7.40;;;4.53;;
15958;SDS011;8078;47.822;9.402;2024-01-16T01:28:44;4.97;;;3.73;;
15958;SDS011;8078;47.822;9.402;2024-01-16T01:31:10;6.30;;;4.80;;
15958;SDS011;8078;47.822;9.402;2024-01-16T01:33:36;5.97;;;4.10;;
15958;SDS011;8078;47.822;9.402;2024-01-16T01:36:02;6.00;;;3.73;;
15958;SDS011;8078;47.822;9.402;2024-01-16T01:38:27;5.03;;;3.97;;
15958;SDS011;8078;47.822;9.402;2024-01-16T01:40:53;6.33;;;3.77;;
15958;SDS011;8078;47.822;9.402;2024-01-16T01:43:19;4.97;;;3.60;;
15958;SDS011;8078;47.822;9.402;2024-01-16T01:45:47;5.87;;;4.20;;
15958;SDS011;8078;47.822;9.402;2024-01-16T01:48:23;5.43;;;3.70;;
15958;SDS011;8078;47.822;9.402;2024-01-16T01:50:49;6.30;;;3.63;;
15958;SDS011;8078;47.822;9.402;2024-01-16T01:53:14;6.97;;;4.47;;
15958;SDS011;8078;47.822;9.402;2024-01-16T01:55:40;5.70;;;3.90;;
15958;SDS011;8078;47.822;9.402;2024-01-16T01:58:06;5.53;;;3.67;;
15958;SDS011;8078;47.822;9.402;2024-01-16T02:00:32;6.90;;;3.30;;
15958;SDS011;8078;47.822;9.402;2024-01-16T02:02:58;5.83;;;4.17;;
15958;SDS011;8078;47.822;9.402;2024-01-16T02:05:25;4.63;;;3.53;;
15958;SDS011;8078;47.822;9.402;2024-01-16T02:07:51;6.13;;;4.00;;
15958;SDS011;8078;47.822;9.402;2024-01-16T02:10:17;6.03;;;3.60;;
15958;SDS011;8078;47.822;9.402;2024-01-16T02:12:43;4.43;;;3.60;;
15958;SDS011;8078;47.822;9.402;2024-01-16T02:15:09;5.77;;;4.30;;
15958;SDS011;8078;47.822;9.402;2024-01-16T02:17:34;4.60;;;4.03;;
15958;SDS011;8078;47.822;9.402;2024-01-16T02:20:00;4.60;;;4.10;;
15958;SDS011;8078;47.822;9.402;2024-01-16T02:22:25;5.90;;;3.93;;
15958;SDS011;8078;47.822;9.402;2024-01-16T02:24:53;4.80;;;3.40;;
15958;SDS011;8078;47.822;9.402;2024-01-16T02:27:20;4.83;;;3.47;;
15958;SDS011;8078;47.822;9.402;2024-01-16T02:29:45;5.63;;;4.27;;
15958;SDS011;8078;47.822;9.402;2024-01-16T02:32:12;5.17;;;3.77;;
15958;SDS011;8078;47.822;9.402;2024-01-16T02:34:38;6.13;;;4.30;;
15958;SDS011;8078;47.822;9.402;2024-01-16T02:37:03;4.30;;;3.87;;
15958;SDS011;8078;47.822;9.402;2024-01-16T02:39:29;4.43;;;3.30;;
15958;SDS011;8078;47.822;9.402;2024-01-16T02:41:54;5.73;;;3.90;;
15958;SDS011;8078;47.822;9.402;2024-01-16T02:44:20;4.43;;;3.97;;
15958;SDS011;8078;47.822;9.402;2024-01-16T02:46:46;7.53;;;4.07;;
15958;SDS011;8078;47.822;9.402;2024-01-16T02:49:11;4.87;;;3.67;;
15958;SDS011;8078;47.822;9.402;2024-01-16T02:51:37;6.40;;;3.90;;
15958;SDS011;8078;47.822;9.402;2024-01-16T02:54:03;9.17;;;3.80;;
15958;SDS011;8078;47.822;9.402;2024-01-16T02:56:29;6.33;;;3.50;;
15958;SDS011;8078;47.822;9.402;2024-01-16T02:58:55;5.00;;;3.70;;
15958;SDS011;8078;47.822;9.402;2024-01-16T03:01:21;6.70;;;3.90;;
15958;SDS011;8078;47.822;9.402;2024-01-16T03:03:46;8.97;;;4.17;;
15958;SDS011;8078;47.822;9.402;2024-01-16T03:06:21;6.33;;;3.97;;
15958;SDS011;8078;47.822;9.402;2024-01-16T03:08:50;4.80;;;3.30;;
15958;SDS011;8078;47.822;9.402;2024-01-16T03:11:16;5.43;;;3.73;;
15958;SDS011;8078;47.822;9.402;2024-01-16T03:13:42;6.83;;;4.13;;
15958;SDS011;8078;47.822;9.402;2024-01-16T03:16:09;6.97;;;4.03;;
15958;SDS011;8078;47.822;9.402;2024-01-16T03:18:36;3.73;;;3.20;;
15958;SDS011;8078;47.822;9.402;2024-01-16T03:21:02;5.93;;;4.00;;
15958;SDS011;8078;47.822;9.402;2024-01-16T03:23:28;5.63;;;4.07;;
15958;SDS011;8078;47.822;9.402;2024-01-16T03:25:54;4.73;;;3.67;;
15958;SDS011;8078;47.822;9.402;2024-01-16T03:28:19;4.60;;;3.47;;
15958;SDS011;8078;47.822;9.402;2024-01-16T03:30:45;3.60;;;3.27;;
15958;SDS011;8078;47.822;9.402;2024-01-16T03:33:11;5.83;;;3.77;;
15958;SDS011;8078;47.822;9.402;2024-01-16T03:35:37;4.77;;;3.40;;
15958;SDS011;8078;47.822;9.402;2024-01-16T03:38:02;3.63;;;3.10;;
15958;SDS011;8078;47.822;9.402;2024-01-16T03:40:28;5.17;;;3.30;;
15958;SDS011;8078;47.822;9.402;2024-01-16T03:42:59;5.37;;;3.90;;
15958;SDS011;8078;47.822;9.402;2024-01-16T03:45:24;5.30;;;3.40;;
15958;SDS011;8078;47.822;9.402;2024-01-16T03:47:50;3.33;;;3.03;;
15958;SDS011;8078;47.822;9.402;2024-01-16T03:50:16;4.70;;;3.30;;
15958;SDS011;8078;47.822;9.402;2024-01-16T03:52:41;3.40;;;3.10;;
15958;SDS011;8078;47.822;9.402;2024-01-16T03:55:07;4.90;;;3.20;;
15958;SDS011;8078;47.822;9.402;2024-01-16T03:57:33;8.27;;;3.93;;
15958;SDS011;8078;47.822;9.402;2024-01-16T03:59:58;4.67;;;3.20;;
15958;SDS011;8078;47.822;9.402;2024-01-16T04:02:24;3.50;;;2.93;;
15958;SDS011;8078;47.822;9.402;2024-01-16T04:04:49;4.57;;;2.97;;
15958;SDS011;8078;47.822;9.402;2024-01-16T04:07:15;4.13;;;3.50;;
15958;SDS011;8078;47.822;9.402;2024-01-16T04:09:42;4.43;;;2.83;;
15958;SDS011;8078;47.822;9.402;2024-01-16T04:12:08;3.63;;;3.20;;
15958;SDS011;8078;47.822;9.402;2024-01-16T04:14:33;4.13;;;3.10;;
15958;SDS011;8078;47.822;9.402;2024-01-16T04:16:59;4.60;;;3.23;;
15958;SDS011;8078;47.822;9.402;2024-01-16T04:19:25;4.37;;;3.23;;
15958;SDS011;8078;47.822;9.402;2024-01-16T04:21:50;5.23;;;3.37;;
15958;SDS011;8078;47.822;9.402;2024-01-16T04:24:16;3.70;;;3.10;;
15958;SDS011;8078;47.822;9.402;2024-01-16T04:26:41;5.50;;;3.37;;
15958;SDS011;8078;47.822;9.402;2024-01-16T04:29:07;3.30;;;2.90;;
15958;SDS011;8078;47.822;9.402;2024-01-16T04:31:38;4.73;;;2.67;;
15958;SDS011;8078;47.822;9.402;2024-01-16T04:34:06;2.90;;;2.63;;
15958;SDS011;8078;47.822;9.402;2024-01-16T04:36:31;3.83;;;3.20;;
15958;SDS011;8078;47.822;9.402;2024-01-16T04:38:57;4.90;;;2.97;;
15958;SDS011;8078;47.822;9.402;2024-01-16T04:41:23;3.40;;;2.80;;
15958;SDS011;8078;47.822;9.402;2024-01-16T04:43:48;3.17;;;2.60;;
15958;SDS011;8078;47.822;9.402;2024-01-16T04:46:15;3.93;;;2.90;;
15958;SDS011;8078;47.822;9.402;2024-01-16T04:48:41;4.60;;;3.00;;
15958;SDS011;8078;47.822;9.402;2024-01-16T04:51:07;3.73;;;3.00;;
15958;SDS011;8078;47.822;9.402;2024-01-16T04:53:33;7.87;;;3.33;;
15958;SDS011;8078;47.822;9.402;2024-01-16T04:55:58;5.37;;;2.80;;
15958;SDS011;8078;47.822;9.402;2024-01-16T04:58:24;5.00;;;3.00;;
15958;SDS011;8078;47.822;9.402;2024-01-16T05:00:50;4.83;;;3.37;;
15958;SDS011;8078;47.822;9.402;2024-01-16T05:03:15;5.00;;;3.50;;
15958;SDS011;8078;47.822;9.402;2024-01-16T05:05:41;5.63;;;3.80;;
15958;SDS011;8078;47.822;9.402;2024-01-16T05:08:07;5.07;;;3.87;;
15958;SDS011;8078;47.822;9.402;2024-01-16T05:10:35;4.97;;;3.47;;
15958;SDS011;8078;47.822;9.402;2024-01-16T05:13:00;5.20;;;3.43;;
15958;SDS011;8078;47.822;9.402;2024-01-16T05:15:26;6.27;;;4.03;;
15958;SDS011;8078;47.822;9.402;2024-01-16T05:17:51;6.17;;;4.57;;
15958;SDS011;8078;47.822;9.402;2024-01-16T05:20:18;6.97;;;4.03;;
15958;SDS011;8078;47.822;9.402;2024-01-16T05:22:44;5.90;;;4.00;;
15958;SDS011;8078;47.822;9.402;2024-01-16T05:25:09;6.60;;;4.17;;
15958;SDS011;8078;47.822;9.402;2024-01-16T05:27:35;7.77;;;4.30;;
15958;SDS011;8078;47.822;9.402;2024-01-16T05:30:01;7.37;;;4.10;;
15958;SDS011;8078;47.822;9.402;2024-01-16T05:32:26;6.10;;;4.03;;
15958;SDS011;8078;47.822;9.402;2024-01-16T05:34:52;7.07;;;4.03;;
15958;SDS011;8078;47.822;9.402;2024-01-16T05:37:21;3.93;;;3.53;;
15958;SDS011;8078;47.822;9.402;2024-01-16T05:39:46;4.60;;;3.50;;
15958;SDS011;8078;47.822;9.402;2024-01-16T05:42:12;5.80;;;3.80;;
15958;SDS011;8078;47.822;9.402;2024-01-16T05:44:38;7.33;;;3.30;;
15958;SDS011;8078;47.822;9.402;2024-01-16T05:47:03;6.40;;;3.40;;
15958;SDS011;8078;47.822;9.402;2024-01-16T05:49:30;5.60;;;3.30;;
15958;SDS011;8078;47.822;9.402;2024-01-16T05:51:56;4.87;;;4.00;;
15958;SDS011;8078;47.822;9.402;2024-01-16T05:54:22;5.50;;;3.17;;
15958;SDS011;8078;47.822;9.402;2024-01-16T05:56:48;4.93;;;3.70;;
15958;SDS011;8078;47.822;9.402;2024-01-16T05:59:14;5.57;;;3.97;;
15958;SDS011;8078;47.822;9.402;2024-01-16T06:01:40;6.40;;;3.47;;
15958;SDS011;8078;47.822;9.402;2024-01-16T06:04:06;5.33;;;3.47;;
15958;SDS011;8078;47.822;9.402;2024-01-16T06:06:32;5.33;;;3.20;;
15958;SDS011;8078;47.822;9.402;2024-01-16T06:08:58;4.63;;;3.50;;
15958;SDS011;8078;47.822;9.402;2024-01-16T06:11:31;4.70;;;3.40;;
15958;SDS011;8078;47.822;9.402;2024-01-16T06:13:57;4.07;;;3.17;;
15958;SDS011;8078;47.822;9.402;2024-01-16T06:16:24;4.33;;;3.30;;
15958;SDS011;8078;47.822;9.402;2024-01-16T06:18:50;5.90;;;3.20;;
15958;SDS011;8078;47.822;9.402;2024-01-16T06:21:15;3.77;;;3.33;;
15958;SDS011;8078;47.822;9.402;2024-01-16T06:23:41;5.40;;;3.10;;
15958;SDS011;8078;47.822;9.402;2024-01-16T06:26:07;3.90;;;3.40;;
15958;SDS011;8078;47.822;9.402;2024-01-16T06:28:33;3.53;;;3.17;;
15958;SDS011;8078;47.822;9.402;2024-01-16T06:30:58;4.00;;;3.00;;
15958;SDS011;8078;47.822;9.402;2024-01-16T06:33:24;5.47;;;3.10;;
15958;SDS011;8078;47.822;9.402;2024-01-16T06:35:50;3.40;;;2.90;;
15958;SDS011;8078;47.822;9.402;2024-01-16T06:38:16;5.80;;;3.23;;
15958;SDS011;8078;47.822;9.402;2024-01-16T06:40:42;4.23;;;3.23;;
15958;SDS011;8078;47.822;9.402;2024-01-16T06:43:07;6.13;;;3.70;;
15958;SDS011;8078;47.822;9.402;2024-01-16T06:45:33;3.80;;;3.07;;
15958;SDS011;8078;47.822;9.402;2024-01-16T06:47:59;4.10;;;3.27;;
15958;SDS011;8078;47.822;9.402;2024-01-16T06:50:24;5.97;;;3.30;;
15958;SDS011;8078;47.822;9.402;2024-01-16T06:52:50;3.47;;;3.00;;
15958;SDS011;8078;47.822;9.402;2024-01-16T06:55:16;5.93;;;3.53;;
15958;SDS011;8078;47.822;9.402;2024-01-16T06:57:42;6.57;;;3.07;;
15958;SDS011;8078;47.822;9.402;2024-01-16T07:00:08;3.70;;;2.87;;
15958;SDS011;8078;47.822;9.402;2024-01-16T07:02:35;5.60;;;3.50;;
15958;SDS011;8078;47.822;9.402;2024-01-16T07:05:01;5.93;;;2.73;;
15958;SDS011;8078;47.822;9.402;2024-01-16T07:07:28;5.07;;;3.30;;
15958;SDS011;8078;47.822;9.402;2024-01-16T07:09:53;3.90;;;2.87;;
15958;SDS011;8078;47.822;9.402;2024-01-16T07:12:19;3.73;;;2.87;;
15958;SDS011;8078;47.822;9.402;2024-01-16T07:14:45;4.47;;;3.30;;
15958;SDS011;8078;47.822;9.402;2024-01-16T07:17:10;4.43;;;3.30;;
15958;SDS011;8078;47.822;9.402;2024-01-16T07:19:36;6.80;;;3.50;;
15958;SDS011;8078;47.822;9.402;2024-01-16T07:22:01;5.77;;;3.80;;
15958;SDS011;8078;47.822;9.402;2024-01-16T07:24:27;6.23;;;3.73;;
15958;SDS011;8078;47.822;9.402;2024-01-16T07:26:53;6.93;;;4.50;;
15958;SDS011;8078;47.822;9.402;2024-01-16T07:29:19;6.23;;;4.17;;
15958;SDS011;8078;47.822;9.402;2024-01-16T07:31:45;5.70;;;3.80;;
15958;SDS011;8078;47.822;9.402;2024-01-16T07:34:11;5.70;;;3.97;;
15958;SDS011;8078;47.822;9.402;2024-01-16T07:36:36;6.87;;;4.43;;
15958;SDS011;8078;47.822;9.402;2024-01-16T07:39:02;6.73;;;4.07;;
15958;SDS011;8078;47.822;9.402;2024-01-16T07:41:28;8.57;;;4.73;;
15958;SDS011;8078;47.822;9.402;2024-01-16T07:43:54;5.10;;;4.27;;
15958;SDS011;8078;47.822;9.402;2024-01-16T07:46:20;7.37;;;4.20;;
15958;SDS011;8078;47.822;9.402;2024-01-16T07:48:45;7.03;;;4.40;;
15958;SDS011;8078;47.822;9.402;2024-01-16T07:51:11;10.40;;;5.37;;
15958;SDS011;8078;47.822;9.402;2024-01-16T07:53:36;8.33;;;4.70;;
15958;SDS011;8078;47.822;9.402;2024-01-16T07:56:02;10.77;;;5.70;;
15958;SDS011;8078;47.822;9.402;2024-01-16T07:58:28;7.93;;;5.00;;
15958;SDS011;8078;47.822;9.402;2024-01-16T08:00:53;8.50;;;5.23;;
15958;SDS011;8078;47.822;9.402;2024-01-16T08:03:19;10.03;;;5.50;;
15958;SDS011;8078;47.822;9.402;2024-01-16T08:05:44;6.70;;;4.50;;
15958;SDS011;8078;47.822;9.402;2024-01-16T08:08:10;10.43;;;5.47;;
15958;SDS011;8078;47.822;9.402;2024-01-16T08:10:35;7.33;;;5.07;;
15958;SDS011;8078;47.822;9.402;2024-01-16T08:13:01;6.87;;;4.77;;
15958;SDS011;8078;47.822;9.402;2024-01-16T08:15:27;7.10;;;5.07;;
15958;SDS011;8078;47.822;9.402;2024-01-16T08:17:52;9.43;;;5.40;;
15958;SDS011;8078;47.822;9.402;2024-01-16T08:20:18;6.23;;;4.90;;
15958;SDS011;8078;47.822;9.402;2024-01-16T08:22:43;6.90;;;4.27;;
15958;SDS011;8078;47.822;9.402;2024-01-16T08:25:09;9.27;;;4.57;;
15958;SDS011;8078;47.822;9.402;2024-01-16T08:27:34;7.50;;;4.87;;
15958;SDS011;8078;47.822;9.402;2024-01-16T08:30:02;7.73;;;4.67;;
15958;SDS011;8078;47.822;9.402;2024-01-16T08:32:29;7.60;;;4.60;;
15958;SDS011;8078;47.822;9.402;2024-01-16T08:34:54;7.80;;;5.10;;
15958;SDS011;8078;47.822;9.402;2024-01-16T08:37:20;6.20;;;4.93;;
15958;SDS011;8078;47.822;9.402;2024-01-16T08:39:45;8.80;;;4.60;;
15958;SDS011;8078;47.822;9.402;2024-01-16T08:42:11;5.73;;;4.33;;
15958;SDS011;8078;47.822;9.402;2024-01-16T08:44:39;5.53;;;4.43;;
15958;SDS011;8078;47.822;9.402;2024-01-16T08:47:05;7.83;;;4.90;;
15958;SDS011;8078;47.822;9.402;2024-01-16T08:49:31;8.00;;;4.83;;
15958;SDS011;8078;47.822;9.402;2024-01-16T08:51:57;7.33;;;4.20;;
15958;SDS011;8078;47.822;9.402;2024-01-16T08:54:23;7.00;;;4.63;;
15958;SDS011;8078;47.822;9.402;2024-01-16T08:56:50;8.67;;;4.87;;
15958;SDS011;8078;47.822;9.402;2024-01-16T08:59:16;8.93;;;4.87;;
15958;SDS011;8078;47.822;9.402;2024-01-16T09:01:42;9.80;;;5.33;;
15958;SDS011;8078;47.822;9.402;2024-01-16T09:04:07;10.07;;;5.63;;
15958;SDS011;8078;47.822;9.402;2024-01-16T09:06:33;13.40;;;7.27;;
15958;SDS011;8078;47.822;9.402;2024-01-16T09:08:59;8.53;;;5.90;;
15958;SDS011;8078;47.822;9.402;2024-01-16T09:11:24;7.87;;;4.77;;
15958;SDS011;8078;47.822;9.402;2024-01-16T09:13:50;7.30;;;4.60;;
15958;SDS011;8078;47.822;9.402;2024-01-16T09:16:16;6.70;;;4.40;;
15958;SDS011;8078;47.822;9.402;2024-01-16T09:18:42;6.97;;;4.90;;
15958;SDS011;8078;47.822;9.402;2024-01-16T09:21:07;8.83;;;5.07;;
15958;SDS011;8078;47.822;9.402;2024-01-16T09:23:33;6.77;;;4.57;;
15958;SDS011;8078;47.822;9.402;2024-01-16T09:25:58;6.87;;;4.67;;
15958;SDS011;8078;47.822;9.402;2024-01-16T09:28:24;8.57;;;4.70;;
15958;SDS011;8078;47.822;9.402;2024-01-16T09:30:50;7.23;;;4.50;;
15958;SDS011;8078;47.822;9.402;2024-01-16T09:33:16;7.67;;;4.63;;
15958;SDS011;8078;47.822;9.402;2024-01-16T09:35:41;6.03;;;4.10;;
15958;SDS011;8078;47.822;9.402;2024-01-16T09:38:07;7.20;;;4.80;;
15958;SDS011;8078;47.822;9.402;2024-01-16T09:40:33;8.67;;;4.73;;
15958;SDS011;8078;47.822;9.402;2024-01-16T09:43:00;8.27;;;5.10;;
15958;SDS011;8078;47.822;9.402;2024-01-16T09:45:26;7.60;;;4.43;;
15958;SDS011;8078;47.822;9.402;2024-01-16T09:47:54;6.53;;;4.43;;
15958;SDS011;8078;47.822;9.402;2024-01-16T09:50:22;6.50;;;4.50;;
15958;SDS011;8078;47.822;9.402;2024-01-16T09:52:48;8.63;;;4.90;;
15958;SDS011;8078;47.822;9.402;2024-01-16T09:55:14;6.33;;;4.60;;
15958;SDS011;8078;47.822;9.402;2024-01-16T09:57:40;6.47;;;4.53;;
15958;SDS011;8078;47.822;9.402;2024-01-16T10:00:09;6.33;;;4.33;;
15958;SDS011;8078;47.822;9.402;2024-01-16T10:02:38;7.70;;;4.10;;
15958;SDS011;8078;47.822;9.402;2024-01-16T10:05:05;6.30;;;4.20;;
15958;SDS011;8078;47.822;9.402;2024-01-16T10:07:33;6.60;;;3.93;;
15958;SDS011;8078;47.822;9.402;2024-01-16T10:10:00;5.13;;;4.13;;
15958;SDS011;8078;47.822;9.402;2024-01-16T10:12:26;6.97;;;4.07;;
15958;SDS011;8078;47.822;9.402;2024-01-16T10:14:51;6.07;;;4.07;;
15958;SDS011;8078;47.822;9.402;2024-01-16T10:17:19;8.13;;;4.47;;
15958;SDS011;8078;47.822;9.402;2024-01-16T10:19:51;5.53;;;4.37;;
15958;SDS011;8078;47.822;9.402;2024-01-16T10:22:21;7.17;;;4.40;;
15958;SDS011;8078;47.822;9.402;2024-01-16T10:24:49;6.30;;;4.17;;
15958;SDS011;8078;47.822;9.402;2024-01-16T10:27:28;6.70;;;4.13;;
15958;SDS011;8078;47.822;9.402;2024-01-16T10:29:56;6.87;;;4.43;;
15958;SDS011;8078;47.822;9.402;2024-01-16T10:32:29;6.43;;;4.53;;
15958;SDS011;8078;47.822;9.402;2024-01-16T10:35:05;7.40;;;4.30;;
15958;SDS011;8078;47.822;9.402;2024-01-16T10:37:51;6.63;;;4.60;;
15958;SDS011;8078;47.822;9.402;2024-01-16T10:40:19;6.27;;;4.40;;
15958;SDS011;8078;47.822;9.402;2024-01-16T10:43:04;6.43;;;4.50;;
15958;SDS011;8078;47.822;9.402;2024-01-16T10:45:33;8.03;;;4.77;;
15958;SDS011;8078;47.822;9.402;2024-01-16T10:50:29;8.67;;;4.90;;
15958;SDS011;8078;47.822;9.402;2024-01-16T10:52:55;7.60;;;4.30;;
15958;SDS011;8078;47.822;9.402;2024-01-16T10:55:23;7.33;;;4.63;;
15958;SDS011;8078;47.822;9.402;2024-01-16T10:57:49;5.80;;;4.33;;
15958;SDS011;8078;47.822;9.402;2024-01-16T11:00:19;7.03;;;5.00;;
15958;SDS011;8078;47.822;9.402;2024-01-16T11:02:50;6.93;;;4.83;;
15958;SDS011;8078;47.822;9.402;2024-01-16T11:05:23;7.43;;;5.07;;
15958;SDS011;8078;47.822;9.402;2024-01-16T11:07:50;5.77;;;4.20;;
15958;SDS011;8078;47.822;9.402;2024-01-16T11:10:19;5.90;;;4.20;;
15958;SDS011;8078;47.822;9.402;2024-01-16T11:12:45;6.03;;;4.77;;
15958;SDS011;8078;47.822;9.402;2024-01-16T11:15:12;7.17;;;4.53;;
15958;SDS011;8078;47.822;9.402;2024-01-16T11:17:39;9.43;;;5.23;;
15958;SDS011;8078;47.822;9.402;2024-01-16T11:20:08;7.00;;;5.00;;
15958;SDS011;8078;47.822;9.402;2024-01-16T11:22:44;8.37;;;5.07;;
15958;SDS011;8078;47.822;9.402;2024-01-16T11:25:11;8.47;;;5.17;;
15958;SDS011;8078;47.822;9.402;2024-01-16T11:27:38;7.70;;;5.37;;
15958;SDS011;8078;47.822;9.402;2024-01-16T11:30:05;9.30;;;4.47;;
15958;SDS011;8078;47.822;9.402;2024-01-16T11:32:36;7.57;;;4.63;;
15958;SDS011;8078;47.822;9.402;2024-01-16T11:35:09;7.17;;;5.07;;
15958;SDS011;8078;47.822;9.402;2024-01-16T11:37:36;7.17;;;4.67;;
15958;SDS011;8078;47.822;9.402;2024-01-16T11:42:49;9.67;;;5.00;;
15958;SDS011;8078;47.822;9.402;2024-01-16T11:48:13;7.77;;;5.20;;
15958;SDS011;8078;47.822;9.402;2024-01-16T11:50:39;7.57;;;5.20;;
15958;SDS011;8078;47.822;9.402;2024-01-16T11:53:05;9.70;;;5.50;;
15958;SDS011;8078;47.822;9.402;2024-01-16T11:55:31;9.13;;;5.33;;
15958;SDS011;8078;47.822;9.402;2024-01-16T12:00:41;7.10;;;4.90;;
15958;SDS011;8078;47.822;9.402;2024-01-16T12:03:10;8.37;;;5.40;;
15958;SDS011;8078;47.822;9.402;2024-01-16T12:05:39;7.30;;;5.60;;
15958;SDS011;8078;47.822;9.402;2024-01-16T12:08:04;9.80;;;6.00;;
15958;SDS011;8078;47.822;9.402;2024-01-16T12:10:31;7.73;;;4.60;;
15958;SDS011;8078;47.822;9.402;2024-01-16T12:12:59;9.17;;;5.17;;
15958;SDS011;8078;47.822;9.402;2024-01-16T12:15:25;10.97;;;5.40;;
15958;SDS011;8078;47.822;9.402;2024-01-16T12:20:30;8.83;;;5.30;;
15958;SDS011;8078;47.822;9.402;2024-01-16T12:23:01;10.97;;;6.17;;
15958;SDS011;8078;47.822;9.402;2024-01-16T12:25:31;10.07;;;5.30;;
15958;SDS011;8078;47.822;9.402;2024-01-16T12:28:01;9.83;;;5.33;;
15958;SDS011;8078;47.822;9.402;2024-01-16T12:30:35;6.60;;;5.20;;
15958;SDS011;8078;47.822;9.402;2024-01-16T12:33:13;8.10;;;5.33;;
15958;SDS011;8078;47.822;9.402;2024-01-16T12:35:39;9.37;;;5.43;;
15958;SDS011;8078;47.822;9.402;2024-01-16T12:38:06;8.43;;;5.27;;
15958;SDS011;8078;47.822;9.402;2024-01-16T12:40:36;7.57;;;4.43;;
15958;SDS011;8078;47.822;9.402;2024-01-16T12:43:04;7.40;;;5.23;;
15958;SDS011;8078;47.822;9.402;2024-01-16T12:45:30;8.23;;;5.07;;
15958;SDS011;8078;47.822;9.402;2024-01-16T12:47:56;9.20;;;5.70;;
15958;SDS011;8078;47.822;9.402;2024-01-16T12:50:26;8.40;;;5.60;;
15958;SDS011;8078;47.822;9.402;2024-01-16T12:53:04;8.70;;;5.53;;
15958;SDS011;8078;47.822;9.402;2024-01-16T12:55:37;8.07;;;5.33;;
15958;SDS011;8078;47.822;9.402;2024-01-16T12:58:13;9.53;;;5.77;;
15958;SDS011;8078;47.822;9.402;2024-01-16T13:00:39;8.87;;;6.00;;
15958;SDS011;8078;47.822;9.402;2024-01-16T13:03:05;8.90;;;5.70;;
15958;SDS011;8078;47.822;9.402;2024-01-16T13:05:31;7.07;;;5.37;;
15958;SDS011;8078;47.822;9.402;2024-01-16T13:08:03;9.27;;;5.83;;
15958;SDS011;8078;47.822;9.402;2024-01-16T13:10:29;8.83;;;5.70;;
15958;SDS011;8078;47.822;9.402;2024-01-16T13:13:14;7.73;;;5.63;;
15958;SDS011;8078;47.822;9.402;2024-01-16T13:15:42;8.70;;;6.20;;
15958;SDS011;8078;47.822;9.402;2024-01-16T13:18:21;9.60;;;6.13;;
15958;SDS011;8078;47.822;9.402;2024-01-16T13:20:49;9.50;;;6.57;;
15958;SDS011;8078;47.822;9.402;2024-01-16T13:23:15;10.20;;;6.97;;
15958;SDS011;8078;47.822;9.402;2024-01-16T13:25:44;10.37;;;6.93;;
15958;SDS011;8078;47.822;9.402;2024-01-16T13:28:15;7.20;;;6.07;;
15958;SDS011;8078;47.822;9.402;2024-01-16T13:30:42;12.07;;;6.20;;
15958;SDS011;8078;47.822;9.402;2024-01-16T13:33:08;11.60;;;6.77;;
15958;SDS011;8078;47.822;9.402;2024-01-16T13:35:34;8.60;;;6.37;;
15958;SDS011;8078;47.822;9.402;2024-01-16T13:38:04;10.87;;;6.77;;
15958;SDS011;8078;47.822;9.402;2024-01-16T13:40:30;9.90;;;6.27;;
15958;SDS011;8078;47.822;9.402;2024-01-16T13:42:56;9.77;;;6.57;;
15958;SDS011;8078;47.822;9.402;2024-01-16T13:45:22;11.67;;;7.00;;
15958;SDS011;8078;47.822;9.402;2024-01-16T13:47:48;11.60;;;6.77;;
15958;SDS011;8078;47.822;9.402;2024-01-16T13:50:13;11.57;;;6.47;;
15958;SDS011;8078;47.822;9.402;2024-01-16T13:52:39;8.77;;;6.50;;
15958;SDS011;8078;47.822;9.402;2024-01-16T13:55:05;9.83;;;5.93;;
15958;SDS011;8078;47.822;9.402;2024-01-16T13:57:31;10.63;;;6.00;;
15958;SDS011;8078;47.822;9.402;2024-01-16T13:59:59;8.63;;;5.90;;
15958;SDS011;8078;47.822;9.402;2024-01-16T14:02:25;9.00;;;6.23;;
15958;SDS011;8078;47.822;9.402;2024-01-16T14:04:51;8.50;;;6.13;;
15958;SDS011;8078;47.822;9.402;2024-01-16T14:07:16;8.20;;;6.23;;
15958;SDS011;8078;47.822;9.402;2024-01-16T14:09:42;9.33;;;6.60;;
15958;SDS011;8078;47.822;9.402;2024-01-16T14:12:08;10.37;;;7.00;;
15958;SDS011;8078;47.822;9.402;2024-01-16T14:14:34;9.97;;;6.00;;
15958;SDS011;8078;47.822;9.402;2024-01-16T14:16:59;8.47;;;6.30;;
15958;SDS011;8078;47.822;9.402;2024-01-16T14:19:27;9.50;;;6.90;;
15958;SDS011;8078;47.822;9.402;2024-01-16T14:21:54;11.60;;;6.80;;
15958;SDS011;8078;47.822;9.402;2024-01-16T14:24:21;11.07;;;6.40;;
15958;SDS011;8078;47.822;9.402;2024-01-16T14:26:46;12.07;;;7.40;;
15958;SDS011;8078;47.822;9.402;2024-01-16T14:29:12;11.83;;;7.00;;
15958;SDS011;8078;47.822;9.402;2024-01-16T14:31:38;10.27;;;6.67;;
15958;SDS011;8078;47.822;9.402;2024-01-16T14:34:07;10.57;;;6.63;;
15958;SDS011;8078;47.822;9.402;2024-01-16T14:36:35;8.70;;;6.23;;
15958;SDS011;8078;47.822;9.402;2024-01-16T14:39:01;11.87;;;6.93;;
15958;SDS011;8078;47.822;9.402;2024-01-16T14:41:26;14.63;;;7.20;;
15958;SDS011;8078;47.822;9.402;2024-01-16T14:43:52;9.67;;;7.10;;
15958;SDS011;8078;47.822;9.402;2024-01-16T14:46:18;12.43;;;7.20;;
15958;SDS011;8078;47.822;9.402;2024-01-16T14:48:44;8.83;;;6.13;;
15958;SDS011;8078;47.822;9.402;2024-01-16T14:51:11;10.73;;;7.13;;
15958;SDS011;8078;47.822;9.402;2024-01-16T14:53:36;9.77;;;6.67;;
15958;SDS011;8078;47.822;9.402;2024-01-16T14:56:02;10.43;;;7.03;;
15958;SDS011;8078;47.822;9.402;2024-01-16T14:58:30;10.10;;;6.37;;
15958;SDS011;8078;47.822;9.402;2024-01-16T15:00:56;7.87;;;5.90;;
15958;SDS011;8078;47.822;9.402;2024-01-16T15:03:22;10.13;;;7.23;;
15958;SDS011;8078;47.822;9.402;2024-01-16T15:05:47;10.30;;;6.67;;
15958;SDS011;8078;47.822;9.402;2024-01-16T15:08:14;12.53;;;7.23;;
15958;SDS011;8078;47.822;9.402;2024-01-16T15:10:40;10.17;;;7.13;;